sensor_id;sensor_type;location;lat;lon;timestamp;pressure;altitude;pressure_sealevel;temperature;humidity
12785;BME280;6456;42.680;23.260;2023-04-28T00:00:35;94708.16;;;6.32;60.33
12785;BME280;6456;42.680;23.260;2023-04-28T00:03:05;94724.59;;;6.47;60.14
12785;BME280;6456;42.680;23.260;2023-04-28T00:05:32;94880.88;;;7.38;60.47
12785;BME280;6456;42.680;23.260;2023-04-28T00:07:59;94856.44;;;7.10;60.60
12785;BME280;6456;42.680;23.260;2023-04-28T00:10:27;94850.38;;;7.09;60.52
12785;BME280;6456;42.680;23.260;2023-04-28T00:12:54;94726.19;;;6.27;60.57
12785;BME280;6456;42.680;23.260;2023-04-28T00:15:22;94825.81;;;6.89;61.00
12785;BME280;6456;42.680;23.260;2023-04-28T00:17:49;94827.88;;;6.94;60.92
12785;BME280;6456;42.680;23.260;2023-04-28T00:20:17;94798.56;;;6.63;60.99
12785;BME280;6456;42.680;23.260;2023-04-28T00:22:44;94775.75;;;6.57;61.16
12785;BME280;6456;42.680;23.260;2023-04-28T00:25:11;94843.56;;;6.94;61.59
12785;BME280;6456;42.680;23.260;2023-04-28T00:27:38;94787.41;;;6.54;61.41
12785;BME280;6456;42.680;23.260;2023-04-28T00:30:06;94741.78;;;6.21;61.56
12785;BME280;6456;42.680;23.260;2023-04-28T00:32:33;94718.28;;;6.06;61.68
12785;BME280;6456;42.680;23.260;2023-04-28T00:35:01;94832.81;;;6.68;61.88
12785;BME280;6456;42.680;23.260;2023-04-28T00:37:29;94845.78;;;6.76;61.94
12785;BME280;6456;42.680;23.260;2023-04-28T00:39:56;94861.66;;;6.74;62.55
12785;BME280;6456;42.680;23.260;2023-04-28T00:42:23;94846.88;;;6.67;62.38
12785;BME280;6456;42.680;23.260;2023-04-28T00:44:50;94852.31;;;6.65;62.67
12785;BME280;6456;42.680;23.260;2023-04-28T00:47:17;94901.13;;;6.94;62.54
12785;BME280;6456;42.680;23.260;2023-04-28T00:49:45;94793.50;;;6.25;62.38
12785;BME280;6456;42.680;23.260;2023-04-28T00:52:14;94847.34;;;6.56;62.54
12785;BME280;6456;42.680;23.260;2023-04-28T00:54:43;94741.00;;;5.91;62.50
12785;BME280;6456;42.680;23.260;2023-04-28T00:57:12;94840.69;;;6.53;62.57
12785;BME280;6456;42.680;23.260;2023-04-28T00:59:39;94769.88;;;6.04;62.48
12785;BME280;6456;42.680;23.260;2023-04-28T01:02:07;94877.53;;;6.73;62.58
12785;BME280;6456;42.680;23.260;2023-04-28T01:04:34;94906.63;;;6.84;62.59
12785;BME280;6456;42.680;23.260;2023-04-28T01:07:02;94785.00;;;6.09;62.34
12785;BME280;6456;42.680;23.260;2023-04-28T01:09:29;94879.88;;;6.68;61.99
12785;BME280;6456;42.680;23.260;2023-04-28T01:11:57;94846.28;;;6.50;61.98
12785;BME280;6456;42.680;23.260;2023-04-28T01:14:24;94852.69;;;6.47;62.09
12785;BME280;6456;42.680;23.260;2023-04-28T01:16:52;94904.22;;;6.83;62.10
12785;BME280;6456;42.680;23.260;2023-04-28T01:19:20;94807.63;;;6.16;61.95
12785;BME280;6456;42.680;23.260;2023-04-28T01:21:47;94781.72;;;6.00;61.77
12785;BME280;6456;42.680;23.260;2023-04-28T01:24:16;94858.47;;;6.43;62.08
12785;BME280;6456;42.680;23.260;2023-04-28T01:26:43;94794.22;;;6.05;61.79
12785;BME280;6456;42.680;23.260;2023-04-28T01:29:10;94770.09;;;5.88;61.93
12785;BME280;6456;42.680;23.260;2023-04-28T01:31:37;94917.03;;;6.78;61.60
12785;BME280;6456;42.680;23.260;2023-04-28T01:34:05;94853.50;;;6.33;62.03
12785;BME280;6456;42.680;23.260;2023-04-28T01:36:32;94755.19;;;5.74;62.03
12785;BME280;6456;42.680;23.260;2023-04-28T01:38:59;94770.13;;;5.80;61.87
12785;BME280;6456;42.680;23.260;2023-04-28T01:41:27;94847.63;;;6.31;61.65
12785;BME280;6456;42.680;23.260;2023-04-28T01:43:54;94846.03;;;6.30;61.43
12785;BME280;6456;42.680;23.260;2023-04-28T01:46:21;94751.94;;;5.72;61.33
12785;BME280;6456;42.680;23.260;2023-04-28T01:48:48;94780.22;;;5.83;61.37
12785;BME280;6456;42.680;23.260;2023-04-28T01:51:15;94904.88;;;6.70;62.33
12785;BME280;6456;42.680;23.260;2023-04-28T01:53:41;94798.91;;;5.95;62.69
12785;BME280;6456;42.680;23.260;2023-04-28T01:56:08;94867.47;;;6.40;62.08
12785;BME280;6456;42.680;23.260;2023-04-28T01:58:37;94909.56;;;6.60;62.01
12785;BME280;6456;42.680;23.260;2023-04-28T02:01:04;94884.41;;;6.44;62.36
12785;BME280;6456;42.680;23.260;2023-04-28T02:03:31;94895.75;;;6.52;62.01
12785;BME280;6456;42.680;23.260;2023-04-28T02:05:58;94848.72;;;6.22;62.16
12785;BME280;6456;42.680;23.260;2023-04-28T02:08:25;94843.41;;;6.16;62.33
12785;BME280;6456;42.680;23.260;2023-04-28T02:10:51;94884.22;;;6.31;62.47
12785;BME280;6456;42.680;23.260;2023-04-28T02:13:18;94856.75;;;6.21;62.51
12785;BME280;6456;42.680;23.260;2023-04-28T02:15:47;94805.22;;;5.86;62.42
12785;BME280;6456;42.680;23.260;2023-04-28T02:18:14;94836.56;;;6.00;62.78
12785;BME280;6456;42.680;23.260;2023-04-28T02:20:40;94858.53;;;6.06;63.16
12785;BME280;6456;42.680;23.260;2023-04-28T02:23:07;94751.19;;;5.34;63.42
12785;BME280;6456;42.680;23.260;2023-04-28T02:25:34;94767.59;;;5.43;64.05
12785;BME280;6456;42.680;23.260;2023-04-28T02:28:02;94891.22;;;6.16;64.39
12785;BME280;6456;42.680;23.260;2023-04-28T02:30:28;94812.88;;;5.64;64.46
12785;BME280;6456;42.680;23.260;2023-04-28T02:32:57;94876.00;;;6.05;65.65
12785;BME280;6456;42.680;23.260;2023-04-28T02:35:24;94865.81;;;5.96;64.81
12785;BME280;6456;42.680;23.260;2023-04-28T02:37:51;94897.13;;;6.18;64.61
12785;BME280;6456;42.680;23.260;2023-04-28T02:40:18;94808.91;;;5.54;64.62
12785;BME280;6456;42.680;23.260;2023-04-28T02:42:45;94933.88;;;6.31;64.54
12785;BME280;6456;42.680;23.260;2023-04-28T02:45:13;94837.13;;;5.73;64.64
12785;BME280;6456;42.680;23.260;2023-04-28T02:47:40;94828.44;;;5.58;64.87
12785;BME280;6456;42.680;23.260;2023-04-28T02:50:09;94838.69;;;5.59;65.37
12785;BME280;6456;42.680;23.260;2023-04-28T02:52:36;94936.13;;;6.20;65.60
12785;BME280;6456;42.680;23.260;2023-04-28T02:55:03;94911.50;;;6.00;65.50
12785;BME280;6456;42.680;23.260;2023-04-28T02:57:31;94907.09;;;6.00;65.36
12785;BME280;6456;42.680;23.260;2023-04-28T02:59:58;94890.03;;;5.90;65.42
12785;BME280;6456;42.680;23.260;2023-04-28T03:02:25;94870.06;;;5.74;65.39
12785;BME280;6456;42.680;23.260;2023-04-28T03:04:52;94854.22;;;5.61;64.91
12785;BME280;6456;42.680;23.260;2023-04-28T03:07:20;94873.69;;;5.73;65.18
12785;BME280;6456;42.680;23.260;2023-04-28T03:09:47;94877.44;;;5.70;64.72
12785;BME280;6456;42.680;23.260;2023-04-28T03:12:14;94863.94;;;5.67;64.87
12785;BME280;6456;42.680;23.260;2023-04-28T03:14:41;94925.56;;;5.99;64.49
12785;BME280;6456;42.680;23.260;2023-04-28T03:17:08;94949.66;;;6.23;64.54
12785;BME280;6456;42.680;23.260;2023-04-28T03:19:35;94921.50;;;5.96;64.41
12785;BME280;6456;42.680;23.260;2023-04-28T03:22:02;94949.88;;;6.14;63.80
12785;BME280;6456;42.680;23.260;2023-04-28T03:24:31;94921.50;;;5.96;63.05
12785;BME280;6456;42.680;23.260;2023-04-28T03:26:57;94943.56;;;5.94;63.83
12785;BME280;6456;42.680;23.260;2023-04-28T03:29:24;94925.34;;;5.86;63.59
12785;BME280;6456;42.680;23.260;2023-04-28T03:31:52;94911.16;;;5.57;63.27
12785;BME280;6456;42.680;23.260;2023-04-28T03:34:19;94873.22;;;5.47;63.29
12785;BME280;6456;42.680;23.260;2023-04-28T03:36:46;94927.97;;;5.77;63.21
12785;BME280;6456;42.680;23.260;2023-04-28T03:39:13;94863.84;;;5.38;62.91
12785;BME280;6456;42.680;23.260;2023-04-28T03:41:42;94886.56;;;5.52;62.89
12785;BME280;6456;42.680;23.260;2023-04-28T03:44:10;94989.25;;;6.12;63.54
12785;BME280;6456;42.680;23.260;2023-04-28T03:46:41;95006.66;;;6.20;63.01
12785;BME280;6456;42.680;23.260;2023-04-28T03:49:09;94997.03;;;6.20;62.69
12785;BME280;6456;42.680;23.260;2023-04-28T03:51:36;94984.28;;;6.03;62.37
12785;BME280;6456;42.680;23.260;2023-04-28T03:54:03;94991.25;;;6.10;62.72
12785;BME280;6456;42.680;23.260;2023-04-28T03:56:36;94895.75;;;5.48;62.26
12785;BME280;6456;42.680;23.260;2023-04-28T03:59:05;94900.63;;;5.51;62.56
12785;BME280;6456;42.680;23.260;2023-04-28T04:01:32;94982.19;;;5.98;62.61
12785;BME280;6456;42.680;23.260;2023-04-28T04:04:02;94966.19;;;6.01;61.98
12785;BME280;6456;42.680;23.260;2023-04-28T04:06:29;94866.50;;;5.30;61.59
12785;BME280;6456;42.680;23.260;2023-04-28T04:08:57;94989.59;;;6.09;61.80
12785;BME280;6456;42.680;23.260;2023-04-28T04:11:23;94945.28;;;5.78;61.97
12785;BME280;6456;42.680;23.260;2023-04-28T04:13:50;95007.94;;;6.24;61.70
12785;BME280;6456;42.680;23.260;2023-04-28T04:16:19;94986.94;;;6.17;61.30
12785;BME280;6456;42.680;23.260;2023-04-28T04:18:46;94994.06;;;6.23;61.11
12785;BME280;6456;42.680;23.260;2023-04-28T04:21:16;95041.25;;;6.44;61.03
12785;BME280;6456;42.680;23.260;2023-04-28T04:23:43;94945.28;;;6.01;60.86
12785;BME280;6456;42.680;23.260;2023-04-28T04:26:10;94956.38;;;6.03;60.84
12785;BME280;6456;42.680;23.260;2023-04-28T04:28:37;94921.78;;;5.78;60.41
12785;BME280;6456;42.680;23.260;2023-04-28T04:31:04;94977.72;;;6.21;61.07
12785;BME280;6456;42.680;23.260;2023-04-28T04:33:33;95026.84;;;6.49;60.75
12785;BME280;6456;42.680;23.260;2023-04-28T04:36:01;95036.59;;;6.69;61.58
12785;BME280;6456;42.680;23.260;2023-04-28T04:38:29;94954.59;;;6.18;59.82
12785;BME280;6456;42.680;23.260;2023-04-28T04:40:56;95034.91;;;6.76;60.77
12785;BME280;6456;42.680;23.260;2023-04-28T04:43:22;95039.94;;;6.78;60.04
12785;BME280;6456;42.680;23.260;2023-04-28T04:45:49;95036.88;;;6.74;60.87
12785;BME280;6456;42.680;23.260;2023-04-28T04:48:16;94973.28;;;6.44;60.20
12785;BME280;6456;42.680;23.260;2023-04-28T04:50:45;95047.25;;;6.97;60.87
12785;BME280;6456;42.680;23.260;2023-04-28T04:53:12;94980.50;;;6.42;60.27
12785;BME280;6456;42.680;23.260;2023-04-28T04:55:39;95059.38;;;6.98;61.27
12785;BME280;6456;42.680;23.260;2023-04-28T04:58:06;95007.88;;;6.84;59.37
12785;BME280;6456;42.680;23.260;2023-04-28T05:00:33;95018.31;;;6.84;60.49
12785;BME280;6456;42.680;23.260;2023-04-28T05:03:00;95027.97;;;6.83;60.35
12785;BME280;6456;42.680;23.260;2023-04-28T05:05:28;95052.22;;;7.06;60.55
12785;BME280;6456;42.680;23.260;2023-04-28T05:07:57;95065.34;;;7.21;61.34
12785;BME280;6456;42.680;23.260;2023-04-28T05:10:23;95041.59;;;7.08;60.96
12785;BME280;6456;42.680;23.260;2023-04-28T05:12:51;95031.91;;;6.94;60.42
12785;BME280;6456;42.680;23.260;2023-04-28T05:15:18;95016.34;;;6.86;60.85
12785;BME280;6456;42.680;23.260;2023-04-28T05:17:45;94939.22;;;6.38;61.51
12785;BME280;6456;42.680;23.260;2023-04-28T05:20:12;95011.25;;;6.84;61.34
12785;BME280;6456;42.680;23.260;2023-04-28T05:22:39;95004.50;;;6.90;61.58
12785;BME280;6456;42.680;23.260;2023-04-28T05:25:08;95072.00;;;7.38;61.40
12785;BME280;6456;42.680;23.260;2023-04-28T05:27:35;95082.47;;;7.38;59.92
12785;BME280;6456;42.680;23.260;2023-04-28T05:30:06;95066.13;;;7.36;59.81
12785;BME280;6456;42.680;23.260;2023-04-28T05:32:33;95049.41;;;7.37;60.66
12785;BME280;6456;42.680;23.260;2023-04-28T05:35:00;95077.78;;;7.48;60.67
12785;BME280;6456;42.680;23.260;2023-04-28T05:37:27;94996.22;;;7.01;59.35
12785;BME280;6456;42.680;23.260;2023-04-28T05:39:54;95063.66;;;7.49;62.05
12785;BME280;6456;42.680;23.260;2023-04-28T05:42:22;94954.53;;;6.85;62.48
12785;BME280;6456;42.680;23.260;2023-04-28T05:44:49;95065.00;;;7.60;62.09
12785;BME280;6456;42.680;23.260;2023-04-28T05:47:16;95068.09;;;7.63;60.92
12785;BME280;6456;42.680;23.260;2023-04-28T05:49:42;95068.97;;;7.70;60.04
12785;BME280;6456;42.680;23.260;2023-04-28T05:52:09;94983.84;;;7.09;60.59
12785;BME280;6456;42.680;23.260;2023-04-28T05:54:36;95059.41;;;7.63;61.50
12785;BME280;6456;42.680;23.260;2023-04-28T05:57:03;95061.22;;;7.62;60.29
12785;BME280;6456;42.680;23.260;2023-04-28T05:59:31;95018.56;;;7.33;59.06
12785;BME280;6456;42.680;23.260;2023-04-28T06:01:58;95032.81;;;7.30;58.54
12785;BME280;6456;42.680;23.260;2023-04-28T06:04:25;95094.41;;;7.76;59.27
12785;BME280;6456;42.680;23.260;2023-04-28T06:06:52;95063.84;;;7.62;60.00
12785;BME280;6456;42.680;23.260;2023-04-28T06:09:19;95048.31;;;7.61;59.33
12785;BME280;6456;42.680;23.260;2023-04-28T06:11:45;95065.44;;;7.78;60.24
12785;BME280;6456;42.680;23.260;2023-04-28T06:14:12;95085.38;;;7.79;60.42
12785;BME280;6456;42.680;23.260;2023-04-28T06:16:40;95070.66;;;7.78;58.85
12785;BME280;6456;42.680;23.260;2023-04-28T06:19:07;95066.13;;;7.87;58.50
12785;BME280;6456;42.680;23.260;2023-04-28T06:21:35;94995.59;;;7.49;58.22
12785;BME280;6456;42.680;23.260;2023-04-28T06:24:02;94991.63;;;7.53;58.86
12785;BME280;6456;42.680;23.260;2023-04-28T06:26:29;95092.94;;;8.03;57.27
12785;BME280;6456;42.680;23.260;2023-04-28T06:28:55;95014.94;;;7.48;57.18
12785;BME280;6456;42.680;23.260;2023-04-28T06:31:23;95005.06;;;7.50;58.57
12785;BME280;6456;42.680;23.260;2023-04-28T06:33:51;95088.09;;;8.07;56.57
12785;BME280;6456;42.680;23.260;2023-04-28T06:36:18;95004.09;;;7.51;57.35
12785;BME280;6456;42.680;23.260;2023-04-28T06:38:44;95082.88;;;8.07;56.92
12785;BME280;6456;42.680;23.260;2023-04-28T06:41:11;95072.63;;;8.12;57.04
12785;BME280;6456;42.680;23.260;2023-04-28T06:43:38;95063.91;;;8.05;58.04
12785;BME280;6456;42.680;23.260;2023-04-28T06:46:05;94987.56;;;7.51;56.97
12785;BME280;6456;42.680;23.260;2023-04-28T06:48:32;95077.34;;;8.16;58.21
12785;BME280;6456;42.680;23.260;2023-04-28T06:51:01;95068.19;;;8.27;56.52
12785;BME280;6456;42.680;23.260;2023-04-28T06:53:28;94997.63;;;7.90;57.11
12785;BME280;6456;42.680;23.260;2023-04-28T06:55:54;95081.31;;;8.48;55.10
12785;BME280;6456;42.680;23.260;2023-04-28T06:58:22;95066.66;;;8.60;55.61
12785;BME280;6456;42.680;23.260;2023-04-28T07:00:48;95068.09;;;8.63;53.78
12785;BME280;6456;42.680;23.260;2023-04-28T07:03:15;95012.44;;;8.18;53.01
12785;BME280;6456;42.680;23.260;2023-04-28T07:05:42;95075.47;;;8.74;54.02
12785;BME280;6456;42.680;23.260;2023-04-28T07:08:10;95090.03;;;8.76;54.20
12785;BME280;6456;42.680;23.260;2023-04-28T07:10:37;95016.59;;;8.55;53.81
12785;BME280;6456;42.680;23.260;2023-04-28T07:13:04;95013.94;;;8.49;52.56
12785;BME280;6456;42.680;23.260;2023-04-28T07:15:31;94989.97;;;8.30;53.82
12785;BME280;6456;42.680;23.260;2023-04-28T07:17:57;95061.53;;;9.01;54.83
12785;BME280;6456;42.680;23.260;2023-04-28T07:20:27;94992.66;;;8.65;55.33
12785;BME280;6456;42.680;23.260;2023-04-28T07:22:54;95055.50;;;9.07;55.31
12785;BME280;6456;42.680;23.260;2023-04-28T07:25:22;94995.38;;;8.78;54.22
12785;BME280;6456;42.680;23.260;2023-04-28T07:27:49;95060.47;;;9.30;53.98
12785;BME280;6456;42.680;23.260;2023-04-28T07:30:15;95052.88;;;9.41;49.98
12785;BME280;6456;42.680;23.260;2023-04-28T07:32:42;95062.59;;;9.47;53.65
12785;BME280;6456;42.680;23.260;2023-04-28T07:35:09;95042.56;;;9.40;50.08
12785;BME280;6456;42.680;23.260;2023-04-28T07:37:36;95061.44;;;9.56;52.92
12785;BME280;6456;42.680;23.260;2023-04-28T07:40:04;95063.28;;;9.62;53.52
12785;BME280;6456;42.680;23.260;2023-04-28T07:42:32;95028.94;;;9.64;49.47
12785;BME280;6456;42.680;23.260;2023-04-28T07:44:59;95051.03;;;9.76;52.10
12785;BME280;6456;42.680;23.260;2023-04-28T07:47:26;95053.25;;;9.79;50.83
12785;BME280;6456;42.680;23.260;2023-04-28T07:49:53;95052.06;;;9.82;49.75
12785;BME280;6456;42.680;23.260;2023-04-28T07:52:20;95022.28;;;9.68;50.28
12785;BME280;6456;42.680;23.260;2023-04-28T07:54:47;95035.25;;;9.83;51.43
12785;BME280;6456;42.680;23.260;2023-04-28T07:57:14;95053.09;;;10.00;51.76
12785;BME280;6456;42.680;23.260;2023-04-28T07:59:43;94973.56;;;9.65;49.92
12785;BME280;6456;42.680;23.260;2023-04-28T08:02:09;95042.88;;;10.18;47.54
12785;BME280;6456;42.680;23.260;2023-04-28T08:04:37;95052.59;;;10.24;47.93
12785;BME280;6456;42.680;23.260;2023-04-28T08:07:05;95043.91;;;10.30;47.10
12785;BME280;6456;42.680;23.260;2023-04-28T08:09:31;95059.69;;;10.30;49.54
12785;BME280;6456;42.680;23.260;2023-04-28T08:11:59;95023.19;;;10.01;45.04
12785;BME280;6456;42.680;23.260;2023-04-28T08:14:26;95047.91;;;10.13;45.83
12785;BME280;6456;42.680;23.260;2023-04-28T08:16:55;95044.69;;;10.18;46.68
12785;BME280;6456;42.680;23.260;2023-04-28T08:19:22;95042.47;;;10.21;46.94
12785;BME280;6456;42.680;23.260;2023-04-28T08:21:49;95053.22;;;10.33;45.72
12785;BME280;6456;42.680;23.260;2023-04-28T08:24:16;95045.75;;;10.43;46.49
12785;BME280;6456;42.680;23.260;2023-04-28T08:26:43;95051.81;;;10.50;45.53
12785;BME280;6456;42.680;23.260;2023-04-28T08:29:10;95050.59;;;10.46;45.37
12785;BME280;6456;42.680;23.260;2023-04-28T08:31:37;95047.16;;;10.39;44.40
12785;BME280;6456;42.680;23.260;2023-04-28T08:34:05;95030.97;;;10.29;46.00
12785;BME280;6456;42.680;23.260;2023-04-28T08:36:32;95035.00;;;10.45;46.89
12785;BME280;6456;42.680;23.260;2023-04-28T08:38:59;95045.94;;;10.68;50.41
12785;BME280;6456;42.680;23.260;2023-04-28T08:41:31;95032.19;;;10.66;44.96
12785;BME280;6456;42.680;23.260;2023-04-28T08:43:58;95028.13;;;10.70;46.41
12785;BME280;6456;42.680;23.260;2023-04-28T08:46:29;95030.56;;;10.78;44.30
12785;BME280;6456;42.680;23.260;2023-04-28T08:49:02;95045.16;;;10.87;46.83
12785;BME280;6456;42.680;23.260;2023-04-28T08:51:33;95037.03;;;10.95;44.68
12785;BME280;6456;42.680;23.260;2023-04-28T08:54:02;95028.69;;;11.11;46.26
12785;BME280;6456;42.680;23.260;2023-04-28T08:56:31;95034.75;;;11.18;45.29
12785;BME280;6456;42.680;23.260;2023-04-28T08:59:01;95025.66;;;11.14;44.62
12785;BME280;6456;42.680;23.260;2023-04-28T09:01:29;94968.41;;;10.83;42.86
12785;BME280;6456;42.680;23.260;2023-04-28T09:03:56;95022.03;;;11.09;43.78
12785;BME280;6456;42.680;23.260;2023-04-28T09:06:23;95005.84;;;10.99;43.06
12785;BME280;6456;42.680;23.260;2023-04-28T09:08:52;95021.81;;;11.04;43.17
12785;BME280;6456;42.680;23.260;2023-04-28T09:11:18;95027.28;;;11.09;42.96
12785;BME280;6456;42.680;23.260;2023-04-28T09:13:45;95017.16;;;11.12;47.88
12785;BME280;6456;42.680;23.260;2023-04-28T09:16:12;95028.69;;;11.18;44.10
12785;BME280;6456;42.680;23.260;2023-04-28T09:18:40;95002.94;;;11.20;44.23
12785;BME280;6456;42.680;23.260;2023-04-28T09:21:20;95005.34;;;11.34;44.85
12785;BME280;6456;42.680;23.260;2023-04-28T09:23:48;95005.72;;;11.44;45.97
12785;BME280;6456;42.680;23.260;2023-04-28T09:26:16;95017.88;;;11.52;43.75
12785;BME280;6456;42.680;23.260;2023-04-28T09:28:43;94948.66;;;11.19;44.85
12785;BME280;6456;42.680;23.260;2023-04-28T09:31:23;95002.41;;;11.55;43.94
12785;BME280;6456;42.680;23.260;2023-04-28T09:33:58;94991.13;;;11.42;45.31
12785;BME280;6456;42.680;23.260;2023-04-28T09:36:25;94968.84;;;11.44;44.60
12785;BME280;6456;42.680;23.260;2023-04-28T09:38:56;94991.88;;;11.69;44.97
12785;BME280;6456;42.680;23.260;2023-04-28T09:41:36;94975.03;;;11.70;42.19
12785;BME280;6456;42.680;23.260;2023-04-28T09:44:14;94951.69;;;11.67;43.64
12785;BME280;6456;42.680;23.260;2023-04-28T09:46:41;94975.63;;;11.65;41.21
12785;BME280;6456;42.680;23.260;2023-04-28T09:49:09;94984.53;;;11.71;41.99
12785;BME280;6456;42.680;23.260;2023-04-28T09:51:36;94988.59;;;11.73;42.38
12785;BME280;6456;42.680;23.260;2023-04-28T09:54:04;94959.00;;;11.71;41.04
12785;BME280;6456;42.680;23.260;2023-04-28T09:56:32;94977.94;;;11.93;41.61
12785;BME280;6456;42.680;23.260;2023-04-28T09:59:00;94972.84;;;11.98;39.99
12785;BME280;6456;42.680;23.260;2023-04-28T10:01:37;94971.06;;;11.92;40.08
12785;BME280;6456;42.680;23.260;2023-04-28T10:04:07;94954.38;;;11.98;41.79
12785;BME280;6456;42.680;23.260;2023-04-28T10:06:36;94949.06;;;12.04;40.11
12785;BME280;6456;42.680;23.260;2023-04-28T10:09:04;94947.38;;;12.10;45.50
12785;BME280;6456;42.680;23.260;2023-04-28T10:11:32;94956.78;;;12.31;41.87
12785;BME280;6456;42.680;23.260;2023-04-28T10:14:00;94953.06;;;12.38;39.58
12785;BME280;6456;42.680;23.260;2023-04-28T10:16:29;94931.53;;;12.41;37.69
12785;BME280;6456;42.680;23.260;2023-04-28T10:18:57;94950.09;;;12.53;37.90
12785;BME280;6456;42.680;23.260;2023-04-28T10:21:24;94938.44;;;12.42;38.64
12785;BME280;6456;42.680;23.260;2023-04-28T10:23:59;94929.75;;;12.35;39.90
12785;BME280;6456;42.680;23.260;2023-04-28T10:27:02;94941.34;;;12.34;43.72
12785;BME280;6456;42.680;23.260;2023-04-28T10:29:32;94943.81;;;12.54;42.97
12785;BME280;6456;42.680;23.260;2023-04-28T10:32:16;94932.16;;;12.61;42.13
12785;BME280;6456;42.680;23.260;2023-04-28T10:34:43;94944.16;;;12.82;44.47
12785;BME280;6456;42.680;23.260;2023-04-28T10:37:10;94936.75;;;12.91;38.65
12785;BME280;6456;42.680;23.260;2023-04-28T10:39:39;94921.06;;;12.96;35.60
12785;BME280;6456;42.680;23.260;2023-04-28T10:42:51;94910.63;;;13.01;37.40
12785;BME280;6456;42.680;23.260;2023-04-28T10:48:21;94906.56;;;13.05;38.16
12785;BME280;6456;42.680;23.260;2023-04-28T10:51:20;94907.56;;;13.04;35.34
12785;BME280;6456;42.680;23.260;2023-04-28T10:54:22;94931.50;;;13.09;40.25
12785;BME280;6456;42.680;23.260;2023-04-28T10:57:18;94899.88;;;13.02;39.91
12785;BME280;6456;42.680;23.260;2023-04-28T10:59:46;94907.84;;;12.96;39.66
12785;BME280;6456;42.680;23.260;2023-04-28T11:02:40;94900.50;;;12.98;37.40
12785;BME280;6456;42.680;23.260;2023-04-28T11:05:13;94901.44;;;13.10;41.50
12785;BME280;6456;42.680;23.260;2023-04-28T11:07:40;94871.19;;;12.88;38.44
12785;BME280;6456;42.680;23.260;2023-04-28T11:11:11;94885.28;;;13.00;37.90
12785;BME280;6456;42.680;23.260;2023-04-28T11:13:38;94904.13;;;13.21;38.99
12785;BME280;6456;42.680;23.260;2023-04-28T11:16:06;94901.56;;;13.33;36.23
12785;BME280;6456;42.680;23.260;2023-04-28T11:18:47;94898.59;;;13.41;38.18
12785;BME280;6456;42.680;23.260;2023-04-28T11:21:16;94858.81;;;13.36;36.71
12785;BME280;6456;42.680;23.260;2023-04-28T11:23:43;94881.69;;;13.60;37.25
12785;BME280;6456;42.680;23.260;2023-04-28T11:26:12;94884.47;;;13.65;37.26
12785;BME280;6456;42.680;23.260;2023-04-28T11:28:46;94893.78;;;13.68;36.52
12785;BME280;6456;42.680;23.260;2023-04-28T11:31:14;94883.53;;;13.60;38.45
12785;BME280;6456;42.680;23.260;2023-04-28T11:33:45;94867.44;;;13.61;38.39
12785;BME280;6456;42.680;23.260;2023-04-28T11:36:30;94839.56;;;13.47;35.32
12785;BME280;6456;42.680;23.260;2023-04-28T11:38:59;94859.38;;;13.56;36.50
12785;BME280;6456;42.680;23.260;2023-04-28T11:41:26;94856.66;;;13.74;36.11
12785;BME280;6456;42.680;23.260;2023-04-28T11:43:53;94869.72;;;13.87;37.08
12785;BME280;6456;42.680;23.260;2023-04-28T11:46:21;94852.75;;;13.65;36.74
12785;BME280;6456;42.680;23.260;2023-04-28T11:48:48;94845.41;;;13.90;37.24
12785;BME280;6456;42.680;23.260;2023-04-28T11:51:33;94844.19;;;14.04;37.52
12785;BME280;6456;42.680;23.260;2023-04-28T11:54:01;94850.31;;;14.17;35.22
12785;BME280;6456;42.680;23.260;2023-04-28T11:56:28;94836.84;;;14.18;35.24
12785;BME280;6456;42.680;23.260;2023-04-28T11:59:03;94834.53;;;14.22;33.99
12785;BME280;6456;42.680;23.260;2023-04-28T12:01:32;94854.72;;;14.46;36.03
12785;BME280;6456;42.680;23.260;2023-04-28T12:04:02;94855.09;;;14.38;34.24
12785;BME280;6456;42.680;23.260;2023-04-28T12:06:29;94844.63;;;14.43;33.26
12785;BME280;6456;42.680;23.260;2023-04-28T12:08:57;94841.59;;;14.51;34.68
12785;BME280;6456;42.680;23.260;2023-04-28T12:11:29;94837.34;;;14.61;38.09
12785;BME280;6456;42.680;23.260;2023-04-28T12:14:05;94832.84;;;14.62;36.15
12785;BME280;6456;42.680;23.260;2023-04-28T12:16:42;94820.31;;;14.57;33.29
12785;BME280;6456;42.680;23.260;2023-04-28T12:19:13;94826.50;;;14.74;31.87
12785;BME280;6456;42.680;23.260;2023-04-28T12:21:41;94826.03;;;14.77;32.93
12785;BME280;6456;42.680;23.260;2023-04-28T12:24:18;94829.03;;;14.69;34.30
12785;BME280;6456;42.680;23.260;2023-04-28T12:26:45;94830.38;;;14.84;35.06
12785;BME280;6456;42.680;23.260;2023-04-28T12:29:34;94823.16;;;14.79;35.88
12785;BME280;6456;42.680;23.260;2023-04-28T12:32:01;94818.97;;;14.83;34.30
12785;BME280;6456;42.680;23.260;2023-04-28T12:34:28;94804.91;;;14.94;32.63
12785;BME280;6456;42.680;23.260;2023-04-28T12:36:56;94813.63;;;15.06;32.16
12785;BME280;6456;42.680;23.260;2023-04-28T12:39:24;94799.81;;;15.04;34.40
12785;BME280;6456;42.680;23.260;2023-04-28T12:41:51;94797.38;;;15.14;33.68
12785;BME280;6456;42.680;23.260;2023-04-28T12:44:18;94816.59;;;15.21;32.37
12785;BME280;6456;42.680;23.260;2023-04-28T12:46:45;94784.38;;;15.01;33.52
12785;BME280;6456;42.680;23.260;2023-04-28T12:49:12;94788.59;;;15.14;33.28
12785;BME280;6456;42.680;23.260;2023-04-28T12:51:39;94805.03;;;15.27;32.82
12785;BME280;6456;42.680;23.260;2023-04-28T12:54:06;94802.97;;;15.29;33.06
12785;BME280;6456;42.680;23.260;2023-04-28T12:56:34;94802.16;;;15.29;34.56
12785;BME280;6456;42.680;23.260;2023-04-28T12:59:01;94799.41;;;15.24;33.98
12785;BME280;6456;42.680;23.260;2023-04-28T13:01:29;94797.00;;;15.22;33.99
12785;BME280;6456;42.680;23.260;2023-04-28T13:03:55;94788.34;;;15.27;32.72
12785;BME280;6456;42.680;23.260;2023-04-28T13:06:22;94784.31;;;15.24;32.49
12785;BME280;6456;42.680;23.260;2023-04-28T13:08:49;94784.22;;;15.19;33.37
12785;BME280;6456;42.680;23.260;2023-04-28T13:11:16;94764.63;;;15.20;34.24
12785;BME280;6456;42.680;23.260;2023-04-28T13:13:44;94785.53;;;15.45;33.39
12785;BME280;6456;42.680;23.260;2023-04-28T13:16:11;94777.97;;;15.54;32.76
12785;BME280;6456;42.680;23.260;2023-04-28T13:18:38;94737.66;;;15.40;32.67